sensor_id;sensor_type;location;lat;lon;timestamp;P1;durP1;ratioP1;P2;durP2;ratioP2
40204;SDS011;26963;42.666;23.366;2023-02-23T00:01:36;21.48;;;13.52;;
40204;SDS011;26963;42.666;23.366;2023-02-23T00:04:03;22.05;;;13.10;;
40204;SDS011;26963;42.666;23.366;2023-02-23T00:06:29;16.08;;;11.18;;
40204;SDS011;26963;42.666;23.366;2023-02-23T00:08:59;19.25;;;10.60;;
40204;SDS011;26963;42.666;23.366;2023-02-23T00:11:25;14.82;;;9.50;;
40204;SDS011;26963;42.666;23.366;2023-02-23T00:13:54;19.08;;;9.80;;
40204;SDS011;26963;42.666;23.366;2023-02-23T00:16:24;14.13;;;9.38;;
40204;SDS011;26963;42.666;23.366;2023-02-23T00:18:51;16.10;;;9.18;;
40204;SDS011;26963;42.666;23.366;2023-02-23T00:21:25;12.82;;;9.40;;
40204;SDS011;26963;42.666;23.366;2023-02-23T00:23:58;14.98;;;9.55;;
40204;SDS011;26963;42.666;23.366;2023-02-23T00:26:26;14.27;;;10.43;;
40204;SDS011;26963;42.666;23.366;2023-02-23T00:29:00;15.70;;;10.68;;
40204;SDS011;26963;42.666;23.366;2023-02-23T00:31:27;14.82;;;10.15;;
40204;SDS011;26963;42.666;23.366;2023-02-23T00:33:54;14.77;;;10.77;;
40204;SDS011;26963;42.666;23.366;2023-02-23T00:36:23;14.85;;;9.88;;
40204;SDS011;26963;42.666;23.366;2023-02-23T00:38:54;12.43;;;8.60;;
40204;SDS011;26963;42.666;23.366;2023-02-23T00:41:21;14.48;;;9.38;;
40204;SDS011;26963;42.666;23.366;2023-02-23T00:43:52;12.98;;;9.05;;
40204;SDS011;26963;42.666;23.366;2023-02-23T00:46:20;12.93;;;8.40;;
40204;SDS011;26963;42.666;23.366;2023-02-23T00:48:47;13.63;;;8.45;;
40204;SDS011;26963;42.666;23.366;2023-02-23T00:51:14;12.20;;;8.20;;
40204;SDS011;26963;42.666;23.366;2023-02-23T00:53:41;11.85;;;8.60;;
40204;SDS011;26963;42.666;23.366;2023-02-23T00:56:09;11.52;;;7.65;;
40204;SDS011;26963;42.666;23.366;2023-02-23T00:58:36;12.55;;;7.68;;
40204;SDS011;26963;42.666;23.366;2023-02-23T01:01:04;9.82;;;7.47;;
40204;SDS011;26963;42.666;23.366;2023-02-23T01:03:33;9.73;;;7.63;;
40204;SDS011;26963;42.666;23.366;2023-02-23T01:06:00;11.25;;;7.82;;
40204;SDS011;26963;42.666;23.366;2023-02-23T01:08:31;12.23;;;8.10;;
40204;SDS011;26963;42.666;23.366;2023-02-23T01:11:05;12.25;;;8.25;;
40204;SDS011;26963;42.666;23.366;2023-02-23T01:13:35;12.13;;;8.27;;
40204;SDS011;26963;42.666;23.366;2023-02-23T01:16:05;13.88;;;7.90;;
40204;SDS011;26963;42.666;23.366;2023-02-23T01:18:33;12.57;;;8.10;;
40204;SDS011;26963;42.666;23.366;2023-02-23T01:20:59;12.23;;;7.85;;
40204;SDS011;26963;42.666;23.366;2023-02-23T01:23:25;11.82;;;8.60;;
40204;SDS011;26963;42.666;23.366;2023-02-23T01:25:54;12.02;;;8.65;;
40204;SDS011;26963;42.666;23.366;2023-02-23T01:28:19;12.10;;;8.40;;
40204;SDS011;26963;42.666;23.366;2023-02-23T01:30:44;12.20;;;8.55;;
40204;SDS011;26963;42.666;23.366;2023-02-23T01:33:10;10.95;;;8.52;;
40204;SDS011;26963;42.666;23.366;2023-02-23T01:35:37;12.57;;;8.45;;
40204;SDS011;26963;42.666;23.366;2023-02-23T01:38:03;11.82;;;8.73;;
40204;SDS011;26963;42.666;23.366;2023-02-23T01:40:29;12.70;;;8.88;;
40204;SDS011;26963;42.666;23.366;2023-02-23T01:42:57;13.15;;;8.55;;
40204;SDS011;26963;42.666;23.366;2023-02-23T01:47:56;12.80;;;8.75;;
40204;SDS011;26963;42.666;23.366;2023-02-23T01:50:26;12.25;;;8.52;;
40204;SDS011;26963;42.666;23.366;2023-02-23T01:52:57;12.35;;;8.55;;
40204;SDS011;26963;42.666;23.366;2023-02-23T01:55:23;13.18;;;8.00;;
40204;SDS011;26963;42.666;23.366;2023-02-23T01:57:54;10.82;;;7.72;;
40204;SDS011;26963;42.666;23.366;2023-02-23T02:00:25;11.95;;;7.63;;
40204;SDS011;26963;42.666;23.366;2023-02-23T02:02:51;11.50;;;7.68;;
40204;SDS011;26963;42.666;23.366;2023-02-23T02:05:22;11.63;;;7.88;;
40204;SDS011;26963;42.666;23.366;2023-02-23T02:07:49;11.98;;;7.47;;
40204;SDS011;26963;42.666;23.366;2023-02-23T02:10:26;10.85;;;8.07;;
40204;SDS011;26963;42.666;23.366;2023-02-23T02:13:05;15.18;;;8.07;;
40204;SDS011;26963;42.666;23.366;2023-02-23T02:15:34;13.27;;;8.75;;
40204;SDS011;26963;42.666;23.366;2023-02-23T02:18:10;11.98;;;8.18;;
40204;SDS011;26963;42.666;23.366;2023-02-23T02:24:25;12.40;;;8.20;;
40204;SDS011;26963;42.666;23.366;2023-02-23T02:26:50;13.48;;;8.90;;
40204;SDS011;26963;42.666;23.366;2023-02-23T02:29:31;13.35;;;8.80;;
40204;SDS011;26963;42.666;23.366;2023-02-23T02:37:32;21.20;;;13.15;;
40204;SDS011;26963;42.666;23.366;2023-02-23T02:45:16;30.42;;;20.15;;
40204;SDS011;26963;42.666;23.366;2023-02-23T02:47:56;31.45;;;21.35;;
40204;SDS011;26963;42.666;23.366;2023-02-23T02:50:44;25.23;;;15.73;;
40204;SDS011;26963;42.666;23.366;2023-02-23T02:53:24;23.05;;;16.20;;
40204;SDS011;26963;42.666;23.366;2023-02-23T02:55:58;19.40;;;13.40;;
40204;SDS011;26963;42.666;23.366;2023-02-23T02:58:25;25.13;;;16.15;;
40204;SDS011;26963;42.666;23.366;2023-02-23T03:00:52;28.48;;;18.00;;
40204;SDS011;26963;42.666;23.366;2023-02-23T03:03:37;23.38;;;15.32;;
40204;SDS011;26963;42.666;23.366;2023-02-23T03:06:28;23.73;;;15.05;;
40204;SDS011;26963;42.666;23.366;2023-02-23T03:13:02;36.07;;;22.97;;
40204;SDS011;26963;42.666;23.366;2023-02-23T03:24:39;21.63;;;13.40;;
40204;SDS011;26963;42.666;23.366;2023-02-23T03:27:41;19.20;;;12.65;;
40204;SDS011;26963;42.666;23.366;2023-02-23T03:34:12;12.75;;;8.95;;
40204;SDS011;26963;42.666;23.366;2023-02-23T03:37:00;13.60;;;9.30;;
40204;SDS011;26963;42.666;23.366;2023-02-23T03:42:50;13.23;;;8.98;;
40204;SDS011;26963;42.666;23.366;2023-02-23T03:45:38;11.02;;;8.13;;
40204;SDS011;26963;42.666;23.366;2023-02-23T03:48:23;11.88;;;7.35;;
40204;SDS011;26963;42.666;23.366;2023-02-23T03:51:10;12.43;;;8.77;;
40204;SDS011;26963;42.666;23.366;2023-02-23T03:54:08;14.27;;;8.65;;
40204;SDS011;26963;42.666;23.366;2023-02-23T03:57:04;9.75;;;7.45;;
40204;SDS011;26963;42.666;23.366;2023-02-23T03:59:54;14.68;;;8.48;;
40204;SDS011;26963;42.666;23.366;2023-02-23T04:02:41;13.45;;;8.90;;
40204;SDS011;26963;42.666;23.366;2023-02-23T04:05:28;13.63;;;9.27;;
40204;SDS011;26963;42.666;23.366;2023-02-23T04:08:15;14.75;;;9.68;;
40204;SDS011;26963;42.666;23.366;2023-02-23T04:11:22;19.70;;;13.65;;
40204;SDS011;26963;42.666;23.366;2023-02-23T04:14:35;28.38;;;19.08;;
40204;SDS011;26963;42.666;23.366;2023-02-23T04:17:06;34.88;;;20.70;;
40204;SDS011;26963;42.666;23.366;2023-02-23T04:19:33;32.95;;;19.90;;
40204;SDS011;26963;42.666;23.366;2023-02-23T04:21:59;28.25;;;18.50;;
40204;SDS011;26963;42.666;23.366;2023-02-23T04:24:24;29.23;;;18.13;;
40204;SDS011;26963;42.666;23.366;2023-02-23T04:26:50;27.95;;;17.98;;
40204;SDS011;26963;42.666;23.366;2023-02-23T04:29:15;31.13;;;18.67;;
40204;SDS011;26963;42.666;23.366;2023-02-23T04:31:41;30.38;;;18.27;;
40204;SDS011;26963;42.666;23.366;2023-02-23T04:34:06;25.67;;;17.13;;
40204;SDS011;26963;42.666;23.366;2023-02-23T04:36:32;27.27;;;16.70;;
40204;SDS011;26963;42.666;23.366;2023-02-23T04:38:58;22.30;;;14.35;;
40204;SDS011;26963;42.666;23.366;2023-02-23T04:41:24;19.95;;;12.65;;
40204;SDS011;26963;42.666;23.366;2023-02-23T04:43:49;22.70;;;12.63;;
40204;SDS011;26963;42.666;23.366;2023-02-23T04:46:15;17.52;;;11.52;;
40204;SDS011;26963;42.666;23.366;2023-02-23T04:48:41;20.38;;;12.90;;
40204;SDS011;26963;42.666;23.366;2023-02-23T04:51:06;21.42;;;13.57;;
40204;SDS011;26963;42.666;23.366;2023-02-23T04:53:32;17.63;;;12.40;;
40204;SDS011;26963;42.666;23.366;2023-02-23T04:55:57;24.52;;;14.63;;
40204;SDS011;26963;42.666;23.366;2023-02-23T04:58:23;27.73;;;14.55;;
40204;SDS011;26963;42.666;23.366;2023-02-23T05:00:48;23.55;;;13.43;;
40204;SDS011;26963;42.666;23.366;2023-02-23T05:03:14;21.55;;;12.55;;
40204;SDS011;26963;42.666;23.366;2023-02-23T05:05:41;19.23;;;12.65;;
40204;SDS011;26963;42.666;23.366;2023-02-23T05:08:07;23.17;;;15.00;;
40204;SDS011;26963;42.666;23.366;2023-02-23T05:10:33;30.00;;;16.10;;
40204;SDS011;26963;42.666;23.366;2023-02-23T05:12:59;27.50;;;14.85;;
40204;SDS011;26963;42.666;23.366;2023-02-23T05:15:25;24.90;;;15.07;;
40204;SDS011;26963;42.666;23.366;2023-02-23T05:17:54;21.63;;;13.80;;
40204;SDS011;26963;42.666;23.366;2023-02-23T05:20:22;23.02;;;14.27;;
40204;SDS011;26963;42.666;23.366;2023-02-23T05:22:47;24.27;;;15.13;;
40204;SDS011;26963;42.666;23.366;2023-02-23T05:25:13;23.48;;;13.90;;
40204;SDS011;26963;42.666;23.366;2023-02-23T05:27:39;23.52;;;13.57;;
40204;SDS011;26963;42.666;23.366;2023-02-23T05:30:05;21.38;;;12.65;;
40204;SDS011;26963;42.666;23.366;2023-02-23T05:32:32;23.98;;;13.00;;
40204;SDS011;26963;42.666;23.366;2023-02-23T05:34:59;20.50;;;12.98;;
40204;SDS011;26963;42.666;23.366;2023-02-23T05:37:25;23.92;;;13.77;;
40204;SDS011;26963;42.666;23.366;2023-02-23T05:39:50;28.70;;;15.30;;
40204;SDS011;26963;42.666;23.366;2023-02-23T05:42:16;25.67;;;15.32;;
40204;SDS011;26963;42.666;23.366;2023-02-23T05:44:41;19.20;;;12.00;;
40204;SDS011;26963;42.666;23.366;2023-02-23T05:47:07;21.50;;;13.30;;
40204;SDS011;26963;42.666;23.366;2023-02-23T05:49:32;26.83;;;13.95;;
40204;SDS011;26963;42.666;23.366;2023-02-23T05:51:58;16.90;;;11.27;;
40204;SDS011;26963;42.666;23.366;2023-02-23T05:54:23;31.02;;;14.77;;
40204;SDS011;26963;42.666;23.366;2023-02-23T05:56:49;32.50;;;20.27;;
40204;SDS011;26963;42.666;23.366;2023-02-23T05:59:15;19.77;;;11.88;;
40204;SDS011;26963;42.666;23.366;2023-02-23T06:01:41;21.65;;;13.82;;
40204;SDS011;26963;42.666;23.366;2023-02-23T06:04:07;20.38;;;11.20;;
40204;SDS011;26963;42.666;23.366;2023-02-23T06:06:32;17.10;;;9.00;;
40204;SDS011;26963;42.666;23.366;2023-02-23T06:08:58;15.30;;;9.43;;
40204;SDS011;26963;42.666;23.366;2023-02-23T06:11:24;19.02;;;14.88;;
40204;SDS011;26963;42.666;23.366;2023-02-23T06:13:49;31.98;;;18.45;;
40204;SDS011;26963;42.666;23.366;2023-02-23T06:16:15;35.00;;;20.33;;
40204;SDS011;26963;42.666;23.366;2023-02-23T06:18:40;32.05;;;19.70;;
40204;SDS011;26963;42.666;23.366;2023-02-23T06:21:06;39.75;;;23.52;;
40204;SDS011;26963;42.666;23.366;2023-02-23T06:23:31;47.78;;;26.85;;
40204;SDS011;26963;42.666;23.366;2023-02-23T06:25:57;49.42;;;28.25;;
40204;SDS011;26963;42.666;23.366;2023-02-23T06:28:24;45.78;;;27.23;;
40204;SDS011;26963;42.666;23.366;2023-02-23T06:30:51;23.75;;;15.57;;
40204;SDS011;26963;42.666;23.366;2023-02-23T06:33:20;44.47;;;26.95;;
40204;SDS011;26963;42.666;23.366;2023-02-23T06:35:46;31.55;;;21.20;;
40204;SDS011;26963;42.666;23.366;2023-02-23T06:38:12;27.88;;;17.35;;
40204;SDS011;26963;42.666;23.366;2023-02-23T06:40:38;39.35;;;24.25;;
40204;SDS011;26963;42.666;23.366;2023-02-23T06:43:04;37.75;;;25.67;;
40204;SDS011;26963;42.666;23.366;2023-02-23T06:45:30;48.25;;;33.80;;
40204;SDS011;26963;42.666;23.366;2023-02-23T06:47:56;50.38;;;32.80;;
40204;SDS011;26963;42.666;23.366;2023-02-23T06:50:23;47.92;;;31.45;;
40204;SDS011;26963;42.666;23.366;2023-02-23T06:52:49;46.78;;;30.70;;
40204;SDS011;26963;42.666;23.366;2023-02-23T06:55:15;44.53;;;29.35;;
40204;SDS011;26963;42.666;23.366;2023-02-23T06:57:41;48.72;;;30.27;;
40204;SDS011;26963;42.666;23.366;2023-02-23T07:00:08;41.88;;;29.20;;
40204;SDS011;26963;42.666;23.366;2023-02-23T07:02:39;37.67;;;27.70;;
40204;SDS011;26963;42.666;23.366;2023-02-23T07:05:24;39.03;;;28.20;;
40204;SDS011;26963;42.666;23.366;2023-02-23T07:07:50;38.22;;;25.52;;
40204;SDS011;26963;42.666;23.366;2023-02-23T07:10:16;44.15;;;29.05;;
40204;SDS011;26963;42.666;23.366;2023-02-23T07:12:42;41.45;;;26.10;;
40204;SDS011;26963;42.666;23.366;2023-02-23T07:15:08;36.78;;;25.52;;
40204;SDS011;26963;42.666;23.366;2023-02-23T07:17:34;41.10;;;25.60;;
40204;SDS011;26963;42.666;23.366;2023-02-23T07:20:00;38.13;;;24.73;;
40204;SDS011;26963;42.666;23.366;2023-02-23T07:22:26;37.25;;;24.70;;
40204;SDS011;26963;42.666;23.366;2023-02-23T07:24:55;41.28;;;25.42;;
40204;SDS011;26963;42.666;23.366;2023-02-23T07:27:20;35.35;;;25.27;;
40204;SDS011;26963;42.666;23.366;2023-02-23T07:29:48;41.15;;;24.95;;
40204;SDS011;26963;42.666;23.366;2023-02-23T07:32:14;39.20;;;25.70;;
40204;SDS011;26963;42.666;23.366;2023-02-23T07:34:39;38.42;;;23.52;;
40204;SDS011;26963;42.666;23.366;2023-02-23T07:37:05;35.55;;;22.92;;
40204;SDS011;26963;42.666;23.366;2023-02-23T07:39:30;36.53;;;22.45;;
40204;SDS011;26963;42.666;23.366;2023-02-23T07:41:59;29.48;;;20.75;;
40204;SDS011;26963;42.666;23.366;2023-02-23T07:44:25;32.38;;;20.50;;
40204;SDS011;26963;42.666;23.366;2023-02-23T07:46:50;34.58;;;20.27;;
40204;SDS011;26963;42.666;23.366;2023-02-23T07:49:17;37.38;;;21.17;;
40204;SDS011;26963;42.666;23.366;2023-02-23T07:51:42;31.75;;;18.38;;
40204;SDS011;26963;42.666;23.366;2023-02-23T07:54:08;27.00;;;18.30;;
40204;SDS011;26963;42.666;23.366;2023-02-23T07:56:33;30.05;;;18.38;;
40204;SDS011;26963;42.666;23.366;2023-02-23T07:58:59;30.02;;;18.98;;
40204;SDS011;26963;42.666;23.366;2023-02-23T08:01:25;23.88;;;17.65;;
40204;SDS011;26963;42.666;23.366;2023-02-23T08:03:50;27.63;;;17.23;;
40204;SDS011;26963;42.666;23.366;2023-02-23T08:06:17;30.17;;;17.55;;
40204;SDS011;26963;42.666;23.366;2023-02-23T08:08:43;30.13;;;17.85;;
40204;SDS011;26963;42.666;23.366;2023-02-23T08:11:09;23.63;;;18.05;;
40204;SDS011;26963;42.666;23.366;2023-02-23T08:13:35;25.88;;;18.85;;
40204;SDS011;26963;42.666;23.366;2023-02-23T08:16:04;27.73;;;19.58;;
40204;SDS011;26963;42.666;23.366;2023-02-23T08:18:29;31.75;;;18.58;;
40204;SDS011;26963;42.666;23.366;2023-02-23T08:21:01;30.65;;;18.45;;
40204;SDS011;26963;42.666;23.366;2023-02-23T08:23:28;26.48;;;18.45;;
40204;SDS011;26963;42.666;23.366;2023-02-23T08:25:55;29.10;;;18.15;;
40204;SDS011;26963;42.666;23.366;2023-02-23T08:28:23;26.65;;;18.52;;
40204;SDS011;26963;42.666;23.366;2023-02-23T08:30:50;23.48;;;16.75;;
40204;SDS011;26963;42.666;23.366;2023-02-23T08:33:16;27.50;;;17.65;;
40204;SDS011;26963;42.666;23.366;2023-02-23T08:35:42;23.08;;;17.00;;
40204;SDS011;26963;42.666;23.366;2023-02-23T08:38:09;26.63;;;17.50;;
40204;SDS011;26963;42.666;23.366;2023-02-23T08:40:34;26.50;;;17.83;;
40204;SDS011;26963;42.666;23.366;2023-02-23T08:43:00;32.10;;;17.58;;
40204;SDS011;26963;42.666;23.366;2023-02-23T08:45:25;28.65;;;17.27;;
40204;SDS011;26963;42.666;23.366;2023-02-23T08:47:53;28.08;;;16.30;;
40204;SDS011;26963;42.666;23.366;2023-02-23T08:50:20;24.33;;;15.05;;
40204;SDS011;26963;42.666;23.366;2023-02-23T08:52:49;23.95;;;15.27;;
40204;SDS011;26963;42.666;23.366;2023-02-23T08:55:14;22.17;;;14.63;;
40204;SDS011;26963;42.666;23.366;2023-02-23T08:57:42;22.85;;;14.55;;
40204;SDS011;26963;42.666;23.366;2023-02-23T09:00:07;24.33;;;16.25;;
40204;SDS011;26963;42.666;23.366;2023-02-23T09:02:39;21.98;;;15.93;;
40204;SDS011;26963;42.666;23.366;2023-02-23T09:05:05;21.92;;;15.18;;
40204;SDS011;26963;42.666;23.366;2023-02-23T09:07:31;23.13;;;14.45;;
40204;SDS011;26963;42.666;23.366;2023-02-23T09:09:57;20.25;;;15.07;;
40204;SDS011;26963;42.666;23.366;2023-02-23T09:12:23;21.80;;;14.82;;
40204;SDS011;26963;42.666;23.366;2023-02-23T09:14:49;22.95;;;13.98;;
40204;SDS011;26963;42.666;23.366;2023-02-23T09:17:18;23.77;;;15.32;;
40204;SDS011;26963;42.666;23.366;2023-02-23T09:19:44;20.48;;;13.98;;
40204;SDS011;26963;42.666;23.366;2023-02-23T09:22:10;17.88;;;11.48;;
40204;SDS011;26963;42.666;23.366;2023-02-23T09:24:36;18.58;;;12.07;;
40204;SDS011;26963;42.666;23.366;2023-02-23T09:27:02;19.25;;;11.98;;
40204;SDS011;26963;42.666;23.366;2023-02-23T09:29:28;21.10;;;11.60;;
40204;SDS011;26963;42.666;23.366;2023-02-23T09:31:54;18.15;;;13.15;;
40204;SDS011;26963;42.666;23.366;2023-02-23T09:34:22;19.65;;;12.38;;
40204;SDS011;26963;42.666;23.366;2023-02-23T09:36:48;23.13;;;15.10;;
40204;SDS011;26963;42.666;23.366;2023-02-23T09:39:13;19.02;;;13.40;;
40204;SDS011;26963;42.666;23.366;2023-02-23T09:41:53;22.17;;;13.45;;
40204;SDS011;26963;42.666;23.366;2023-02-23T09:44:30;21.38;;;12.98;;
40204;SDS011;26963;42.666;23.366;2023-02-23T09:49:58;18.65;;;11.43;;
40204;SDS011;26963;42.666;23.366;2023-02-23T09:52:31;15.88;;;10.18;;
40204;SDS011;26963;42.666;23.366;2023-02-23T09:55:03;16.92;;;10.73;;
40204;SDS011;26963;42.666;23.366;2023-02-23T09:57:38;19.27;;;12.00;;
40204;SDS011;26963;42.666;23.366;2023-02-23T10:00:25;19.60;;;11.75;;
40204;SDS011;26963;42.666;23.366;2023-02-23T10:03:27;18.35;;;10.80;;
40204;SDS011;26963;42.666;23.366;2023-02-23T10:05:58;18.58;;;12.00;;
40204;SDS011;26963;42.666;23.366;2023-02-23T10:14:03;16.75;;;11.10;;
40204;SDS011;26963;42.666;23.366;2023-02-23T10:22:08;19.30;;;12.23;;
40204;SDS011;26963;42.666;23.366;2023-02-23T10:24:40;20.98;;;12.18;;
40204;SDS011;26963;42.666;23.366;2023-02-23T10:27:13;18.98;;;11.60;;
40204;SDS011;26963;42.666;23.366;2023-02-23T10:29:41;21.38;;;12.02;;
40204;SDS011;26963;42.666;23.366;2023-02-23T10:32:23;21.07;;;12.30;;
40204;SDS011;26963;42.666;23.366;2023-02-23T10:34:56;17.38;;;11.93;;
40204;SDS011;26963;42.666;23.366;2023-02-23T10:37:22;20.08;;;11.80;;
40204;SDS011;26963;42.666;23.366;2023-02-23T10:39:49;17.25;;;12.23;;
40204;SDS011;26963;42.666;23.366;2023-02-23T10:42:19;17.90;;;11.82;;
40204;SDS011;26963;42.666;23.366;2023-02-23T10:44:47;19.02;;;11.20;;
40204;SDS011;26963;42.666;23.366;2023-02-23T10:47:21;17.00;;;10.60;;
40204;SDS011;26963;42.666;23.366;2023-02-23T10:49:52;20.23;;;11.70;;
40204;SDS011;26963;42.666;23.366;2023-02-23T10:52:19;17.80;;;10.20;;
40204;SDS011;26963;42.666;23.366;2023-02-23T10:54:51;18.13;;;11.32;;
40204;SDS011;26963;42.666;23.366;2023-02-23T10:57:21;13.38;;;8.73;;
40204;SDS011;26963;42.666;23.366;2023-02-23T11:02:40;13.50;;;8.93;;
40204;SDS011;26963;42.666;23.366;2023-02-23T11:05:06;17.52;;;9.13;;
40204;SDS011;26963;42.666;23.366;2023-02-23T11:07:49;14.43;;;7.50;;
40204;SDS011;26963;42.666;23.366;2023-02-23T11:10:32;14.30;;;9.30;;
40204;SDS011;26963;42.666;23.366;2023-02-23T11:12:58;11.52;;;8.05;;
40204;SDS011;26963;42.666;23.366;2023-02-23T11:18:13;12.15;;;8.20;;
40204;SDS011;26963;42.666;23.366;2023-02-23T11:20:43;12.20;;;9.27;;
40204;SDS011;26963;42.666;23.366;2023-02-23T11:23:09;13.13;;;8.15;;
40204;SDS011;26963;42.666;23.366;2023-02-23T11:25:41;13.10;;;7.40;;
40204;SDS011;26963;42.666;23.366;2023-02-23T11:28:17;13.63;;;8.07;;
40204;SDS011;26963;42.666;23.366;2023-02-23T11:30:48;13.13;;;7.22;;
40204;SDS011;26963;42.666;23.366;2023-02-23T11:33:15;13.23;;;6.57;;
40204;SDS011;26963;42.666;23.366;2023-02-23T11:35:43;11.45;;;7.10;;
40204;SDS011;26963;42.666;23.366;2023-02-23T11:38:21;8.07;;;5.40;;
40204;SDS011;26963;42.666;23.366;2023-02-23T11:41:01;9.95;;;6.15;;
40204;SDS011;26963;42.666;23.366;2023-02-23T11:43:31;8.15;;;6.57;;
40204;SDS011;26963;42.666;23.366;2023-02-23T11:45:57;9.57;;;6.22;;
40204;SDS011;26963;42.666;23.366;2023-02-23T11:48:47;11.93;;;6.88;;
40204;SDS011;26963;42.666;23.366;2023-02-23T11:51:21;11.68;;;7.13;;
40204;SDS011;26963;42.666;23.366;2023-02-23T11:53:49;9.88;;;5.60;;
40204;SDS011;26963;42.666;23.366;2023-02-23T11:56:19;8.10;;;6.10;;
40204;SDS011;26963;42.666;23.366;2023-02-23T11:59:04;8.48;;;5.18;;
40204;SDS011;26963;42.666;23.366;2023-02-23T12:01:42;9.75;;;7.28;;
40204;SDS011;26963;42.666;23.366;2023-02-23T12:07:02;10.73;;;7.05;;
40204;SDS011;26963;42.666;23.366;2023-02-23T12:09:51;10.80;;;6.40;;
40204;SDS011;26963;42.666;23.366;2023-02-23T12:12:23;8.82;;;6.82;;
40204;SDS011;26963;42.666;23.366;2023-02-23T12:14:54;14.38;;;7.60;;
40204;SDS011;26963;42.666;23.366;2023-02-23T12:17:26;11.82;;;6.97;;
40204;SDS011;26963;42.666;23.366;2023-02-23T12:20:09;11.40;;;6.95;;
40204;SDS011;26963;42.666;23.366;2023-02-23T12:22:45;8.23;;;5.97;;
40204;SDS011;26963;42.666;23.366;2023-02-23T12:25:28;12.05;;;6.95;;
40204;SDS011;26963;42.666;23.366;2023-02-23T12:31:00;10.05;;;6.10;;
40204;SDS011;26963;42.666;23.366;2023-02-23T12:33:43;9.30;;;5.93;;
40204;SDS011;26963;42.666;23.366;2023-02-23T12:36:25;8.90;;;5.95;;
40204;SDS011;26963;42.666;23.366;2023-02-23T12:39:04;11.10;;;6.22;;
40204;SDS011;26963;42.666;23.366;2023-02-23T12:42:05;10.63;;;6.10;;
40204;SDS011;26963;42.666;23.366;2023-02-23T12:47:15;11.43;;;6.50;;
40204;SDS011;26963;42.666;23.366;2023-02-23T12:50:04;9.87;;;6.80;;
40204;SDS011;26963;42.666;23.366;2023-02-23T12:52:42;10.05;;;5.85;;
40204;SDS011;26963;42.666;23.366;2023-02-23T12:55:38;9.30;;;5.57;;
40204;SDS011;26963;42.666;23.366;2023-02-23T13:01:46;9.13;;;6.07;;
40204;SDS011;26963;42.666;23.366;2023-02-23T13:09:59;11.27;;;6.47;;
40204;SDS011;26963;42.666;23.366;2023-02-23T13:25:48;10.48;;;5.50;;
40204;SDS011;26963;42.666;23.366;2023-02-23T13:28:27;12.52;;;6.05;;
40204;SDS011;26963;42.666;23.366;2023-02-23T13:31:24;15.68;;;6.00;;
40204;SDS011;26963;42.666;23.366;2023-02-23T13:33:52;11.73;;;5.90;;
40204;SDS011;26963;42.666;23.366;2023-02-23T13:36:21;6.75;;;5.10;;
40204;SDS011;26963;42.666;23.366;2023-02-23T13:41:35;8.98;;;5.78;;
40204;SDS011;26963;42.666;23.366;2023-02-23T13:49:38;11.30;;;5.22;;
40204;SDS011;26963;42.666;23.366;2023-02-23T13:52:31;8.13;;;5.43;;
40204;SDS011;26963;42.666;23.366;2023-02-23T13:58:04;9.88;;;5.07;;
40204;SDS011;26963;42.666;23.366;2023-02-23T14:00:35;7.80;;;4.80;;
40204;SDS011;26963;42.666;23.366;2023-02-23T14:03:04;9.25;;;5.20;;
40204;SDS011;26963;42.666;23.366;2023-02-23T14:05:40;8.63;;;4.88;;
40204;SDS011;26963;42.666;23.366;2023-02-23T14:08:17;10.10;;;5.18;;
40204;SDS011;26963;42.666;23.366;2023-02-23T14:10:48;8.45;;;4.60;;
40204;SDS011;26963;42.666;23.366;2023-02-23T14:15:46;8.05;;;4.30;;
40204;SDS011;26963;42.666;23.366;2023-02-23T14:29:20;10.20;;;6.00;;
40204;SDS011;26963;42.666;23.366;2023-02-23T14:31:53;9.10;;;5.75;;
40204;SDS011;26963;42.666;23.366;2023-02-23T14:34:19;8.43;;;5.55;;
40204;SDS011;26963;42.666;23.366;2023-02-23T14:36:48;8.85;;;5.18;;
40204;SDS011;26963;42.666;23.366;2023-02-23T14:41:54;9.25;;;5.38;;
40204;SDS011;26963;42.666;23.366;2023-02-23T14:44:29;9.00;;;5.05;;
40204;SDS011;26963;42.666;23.366;2023-02-23T14:49:27;8.02;;;5.28;;
40204;SDS011;26963;42.666;23.366;2023-02-23T14:52:06;7.88;;;5.05;;
40204;SDS011;26963;42.666;23.366;2023-02-23T14:54:34;8.45;;;5.15;;
40204;SDS011;26963;42.666;23.366;2023-02-23T14:57:05;16.52;;;9.93;;
40204;SDS011;26963;42.666;23.366;2023-02-23T14:59:44;21.10;;;10.80;;
40204;SDS011;26963;42.666;23.366;2023-02-23T15:02:25;20.38;;;10.32;;
40204;SDS011;26963;42.666;23.366;2023-02-23T15:04:53;21.30;;;10.68;;
40204;SDS011;26963;42.666;23.366;2023-02-23T15:07:34;24.70;;;10.85;;
40204;SDS011;26963;42.666;23.366;2023-02-23T15:10:11;19.73;;;10.20;;
40204;SDS011;26963;42.666;23.366;2023-02-23T15:12:44;20.15;;;10.20;;
40204;SDS011;26963;42.666;23.366;2023-02-23T15:15:13;17.30;;;8.98;;
40204;SDS011;26963;42.666;23.366;2023-02-23T15:17:42;17.05;;;10.63;;
40204;SDS011;26963;42.666;23.366;2023-02-23T15:20:14;19.67;;;11.48;;
40204;SDS011;26963;42.666;23.366;2023-02-23T15:22:43;19.38;;;10.13;;
40204;SDS011;26963;42.666;23.366;2023-02-23T15:27:43;14.52;;;8.82;;
40204;SDS011;26963;42.666;23.366;2023-02-23T15:30:23;12.70;;;8.10;;
40204;SDS011;26963;42.666;23.366;2023-02-23T15:33:00;25.17;;;13.20;;
40204;SDS011;26963;42.666;23.366;2023-02-23T15:35:27;22.30;;;13.02;;
40204;SDS011;26963;42.666;23.366;2023-02-23T15:37:55;24.33;;;14.70;;
40204;SDS011;26963;42.666;23.366;2023-02-23T15:40:24;30.55;;;16.42;;
40204;SDS011;26963;42.666;23.366;2023-02-23T15:42:54;26.15;;;14.73;;
40204;SDS011;26963;42.666;23.366;2023-02-23T15:45:33;18.02;;;10.10;;
40204;SDS011;26963;42.666;23.366;2023-02-23T15:48:02;12.77;;;8.85;;
40204;SDS011;26963;42.666;23.366;2023-02-23T15:50:32;15.50;;;9.32;;
40204;SDS011;26963;42.666;23.366;2023-02-23T15:53:01;13.50;;;9.07;;
40204;SDS011;26963;42.666;23.366;2023-02-23T15:55:37;13.40;;;8.45;;
40204;SDS011;26963;42.666;23.366;2023-02-23T15:58:28;21.27;;;10.20;;
40204;SDS011;26963;42.666;23.366;2023-02-23T16:00:55;12.25;;;8.23;;
40204;SDS011;26963;42.666;23.366;2023-02-23T16:03:25;21.63;;;12.98;;
40204;SDS011;26963;42.666;23.366;2023-02-23T16:06:05;13.65;;;9.00;;
40204;SDS011;26963;42.666;23.366;2023-02-23T16:08:32;13.00;;;8.32;;
40204;SDS011;26963;42.666;23.366;2023-02-23T16:11:08;13.07;;;7.82;;
40204;SDS011;26963;42.666;23.366;2023-02-23T16:13:41;15.52;;;8.32;;
40204;SDS011;26963;42.666;23.366;2023-02-23T16:16:08;11.93;;;8.25;;
40204;SDS011;26963;42.666;23.366;2023-02-23T16:18:43;15.05;;;7.40;;
40204;SDS011;26963;42.666;23.366;2023-02-23T16:21:13;11.32;;;7.57;;
40204;SDS011;26963;42.666;23.366;2023-02-23T16:23:44;12.00;;;7.00;;
40204;SDS011;26963;42.666;23.366;2023-02-23T16:26:17;10.13;;;6.88;;
40204;SDS011;26963;42.666;23.366;2023-02-23T16:28:44;10.32;;;6.47;;
40204;SDS011;26963;42.666;23.366;2023-02-23T16:31:11;12.68;;;6.82;;
40204;SDS011;26963;42.666;23.366;2023-02-23T16:38:41;13.63;;;7.85;;
40204;SDS011;26963;42.666;23.366;2023-02-23T16:41:20;10.85;;;7.20;;
40204;SDS011;26963;42.666;23.366;2023-02-23T16:43:47;14.70;;;7.53;;